sensor_id;sensor_type;location;lat;lon;timestamp;P1;durP1;ratioP1;P2;durP2;ratioP2
56770;SDS011;42641;59.794;17.616;2023-04-06T00:02:24;4.43;;;3.30;;
56770;SDS011;42641;59.794;17.616;2023-04-06T00:04:50;7.47;;;3.70;;
56770;SDS011;42641;59.794;17.616;2023-04-06T00:07:17;6.67;;;3.70;;
56770;SDS011;42641;59.794;17.616;2023-04-06T00:09:43;7.67;;;3.37;;
56770;SDS011;42641;59.794;17.616;2023-04-06T00:12:10;5.70;;;3.17;;
56770;SDS011;42641;59.794;17.616;2023-04-06T00:14:37;7.03;;;3.27;;
56770;SDS011;42641;59.794;17.616;2023-04-06T00:17:03;4.53;;;3.33;;
56770;SDS011;42641;59.794;17.616;2023-04-06T00:19:30;4.80;;;3.43;;
56770;SDS011;42641;59.794;17.616;2023-04-06T00:21:56;5.47;;;2.90;;
56770;SDS011;42641;59.794;17.616;2023-04-06T00:24:23;8.10;;;3.33;;
56770;SDS011;42641;59.794;17.616;2023-04-06T00:26:49;4.93;;;3.03;;
56770;SDS011;42641;59.794;17.616;2023-04-06T00:29:16;4.23;;;3.07;;
56770;SDS011;42641;59.794;17.616;2023-04-06T00:31:42;9.20;;;3.23;;
56770;SDS011;42641;59.794;17.616;2023-04-06T00:34:09;7.33;;;3.03;;
56770;SDS011;42641;59.794;17.616;2023-04-06T00:36:36;9.00;;;2.93;;
56770;SDS011;42641;59.794;17.616;2023-04-06T00:39:02;15.37;;;3.40;;
56770;SDS011;42641;59.794;17.616;2023-04-06T00:41:28;18.97;;;3.20;;
56770;SDS011;42641;59.794;17.616;2023-04-06T00:43:56;10.77;;;3.47;;
56770;SDS011;42641;59.794;17.616;2023-04-06T00:46:22;7.13;;;3.23;;
56770;SDS011;42641;59.794;17.616;2023-04-06T00:48:49;3.97;;;2.60;;
56770;SDS011;42641;59.794;17.616;2023-04-06T00:51:16;7.37;;;3.10;;
56770;SDS011;42641;59.794;17.616;2023-04-06T00:53:42;7.93;;;2.90;;
56770;SDS011;42641;59.794;17.616;2023-04-06T00:56:10;4.13;;;2.70;;
56770;SDS011;42641;59.794;17.616;2023-04-06T00:58:48;7.53;;;3.07;;
56770;SDS011;42641;59.794;17.616;2023-04-06T01:01:14;9.53;;;3.17;;
56770;SDS011;42641;59.794;17.616;2023-04-06T01:03:42;19.17;;;3.40;;
56770;SDS011;42641;59.794;17.616;2023-04-06T01:06:13;18.43;;;3.73;;
56770;SDS011;42641;59.794;17.616;2023-04-06T01:08:42;11.10;;;3.80;;
56770;SDS011;42641;59.794;17.616;2023-04-06T01:11:20;7.43;;;3.07;;
56770;SDS011;42641;59.794;17.616;2023-04-06T01:13:49;21.43;;;3.73;;
56770;SDS011;42641;59.794;17.616;2023-04-06T01:16:27;10.20;;;3.40;;
56770;SDS011;42641;59.794;17.616;2023-04-06T01:19:14;4.50;;;3.13;;
56770;SDS011;42641;59.794;17.616;2023-04-06T01:21:50;13.77;;;3.40;;
56770;SDS011;42641;59.794;17.616;2023-04-06T01:24:31;5.83;;;3.50;;
56770;SDS011;42641;59.794;17.616;2023-04-06T01:27:03;4.23;;;3.13;;
56770;SDS011;42641;59.794;17.616;2023-04-06T01:29:48;9.70;;;3.57;;
56770;SDS011;42641;59.794;17.616;2023-04-06T01:32:24;11.00;;;3.00;;
56770;SDS011;42641;59.794;17.616;2023-04-06T01:34:51;8.83;;;3.40;;
56770;SDS011;42641;59.794;17.616;2023-04-06T01:37:18;13.17;;;3.37;;
56770;SDS011;42641;59.794;17.616;2023-04-06T01:39:45;6.33;;;2.93;;
56770;SDS011;42641;59.794;17.616;2023-04-06T01:42:18;9.93;;;3.53;;
56770;SDS011;42641;59.794;17.616;2023-04-06T01:44:46;3.27;;;2.70;;
56770;SDS011;42641;59.794;17.616;2023-04-06T01:47:14;4.03;;;3.20;;
56770;SDS011;42641;59.794;17.616;2023-04-06T01:49:41;4.37;;;3.60;;
56770;SDS011;42641;59.794;17.616;2023-04-06T01:52:09;4.20;;;3.17;;
56770;SDS011;42641;59.794;17.616;2023-04-06T01:54:39;4.53;;;3.10;;
56770;SDS011;42641;59.794;17.616;2023-04-06T01:57:28;5.87;;;3.60;;
56770;SDS011;42641;59.794;17.616;2023-04-06T02:00:03;4.73;;;3.53;;
56770;SDS011;42641;59.794;17.616;2023-04-06T02:02:39;5.50;;;3.70;;
56770;SDS011;42641;59.794;17.616;2023-04-06T02:05:11;5.10;;;3.83;;
56770;SDS011;42641;59.794;17.616;2023-04-06T02:07:39;5.20;;;3.40;;
56770;SDS011;42641;59.794;17.616;2023-04-06T02:10:11;6.20;;;3.80;;
56770;SDS011;42641;59.794;17.616;2023-04-06T02:12:38;5.30;;;3.90;;
56770;SDS011;42641;59.794;17.616;2023-04-06T02:15:08;5.83;;;3.70;;
56770;SDS011;42641;59.794;17.616;2023-04-06T02:17:35;5.90;;;3.77;;
56770;SDS011;42641;59.794;17.616;2023-04-06T02:20:02;5.80;;;3.57;;
56770;SDS011;42641;59.794;17.616;2023-04-06T02:22:28;7.00;;;3.40;;
56770;SDS011;42641;59.794;17.616;2023-04-06T02:24:55;4.57;;;3.67;;
56770;SDS011;42641;59.794;17.616;2023-04-06T02:27:21;4.90;;;3.90;;
56770;SDS011;42641;59.794;17.616;2023-04-06T02:29:48;6.10;;;4.20;;
56770;SDS011;42641;59.794;17.616;2023-04-06T02:32:19;5.37;;;3.57;;
56770;SDS011;42641;59.794;17.616;2023-04-06T02:34:46;4.37;;;3.30;;
56770;SDS011;42641;59.794;17.616;2023-04-06T02:37:13;6.83;;;3.87;;
56770;SDS011;42641;59.794;17.616;2023-04-06T02:39:40;4.73;;;3.60;;
56770;SDS011;42641;59.794;17.616;2023-04-06T02:42:08;5.23;;;3.90;;
56770;SDS011;42641;59.794;17.616;2023-04-06T02:44:35;5.23;;;3.60;;
56770;SDS011;42641;59.794;17.616;2023-04-06T02:47:02;4.73;;;3.63;;
56770;SDS011;42641;59.794;17.616;2023-04-06T02:49:28;7.57;;;3.90;;
56770;SDS011;42641;59.794;17.616;2023-04-06T02:51:57;4.80;;;3.70;;
56770;SDS011;42641;59.794;17.616;2023-04-06T02:54:31;6.47;;;4.27;;
56770;SDS011;42641;59.794;17.616;2023-04-06T02:56:58;4.90;;;3.40;;
56770;SDS011;42641;59.794;17.616;2023-04-06T02:59:32;5.30;;;3.77;;
56770;SDS011;42641;59.794;17.616;2023-04-06T03:02:10;6.27;;;3.80;;
56770;SDS011;42641;59.794;17.616;2023-04-06T03:04:36;5.57;;;3.70;;
56770;SDS011;42641;59.794;17.616;2023-04-06T03:07:06;4.93;;;3.23;;
56770;SDS011;42641;59.794;17.616;2023-04-06T03:09:36;5.27;;;3.60;;
56770;SDS011;42641;59.794;17.616;2023-04-06T03:12:03;5.33;;;3.57;;
56770;SDS011;42641;59.794;17.616;2023-04-06T03:14:39;5.87;;;3.47;;
56770;SDS011;42641;59.794;17.616;2023-04-06T03:17:05;5.47;;;3.67;;
56770;SDS011;42641;59.794;17.616;2023-04-06T03:19:32;5.63;;;3.73;;
56770;SDS011;42641;59.794;17.616;2023-04-06T03:22:00;4.57;;;3.13;;
56770;SDS011;42641;59.794;17.616;2023-04-06T03:24:27;5.40;;;3.80;;
56770;SDS011;42641;59.794;17.616;2023-04-06T03:26:57;4.70;;;3.67;;
56770;SDS011;42641;59.794;17.616;2023-04-06T03:29:24;5.03;;;3.80;;
56770;SDS011;42641;59.794;17.616;2023-04-06T03:31:50;6.00;;;4.00;;
56770;SDS011;42641;59.794;17.616;2023-04-06T03:34:33;7.50;;;3.93;;
56770;SDS011;42641;59.794;17.616;2023-04-06T03:37:00;5.67;;;3.60;;
56770;SDS011;42641;59.794;17.616;2023-04-06T03:39:30;4.50;;;3.70;;
56770;SDS011;42641;59.794;17.616;2023-04-06T03:41:56;5.33;;;3.83;;
56770;SDS011;42641;59.794;17.616;2023-04-06T03:44:34;5.77;;;4.00;;
56770;SDS011;42641;59.794;17.616;2023-04-06T03:47:01;5.37;;;3.80;;
56770;SDS011;42641;59.794;17.616;2023-04-06T03:49:28;4.80;;;3.50;;
56770;SDS011;42641;59.794;17.616;2023-04-06T03:51:55;4.67;;;3.63;;
56770;SDS011;42641;59.794;17.616;2023-04-06T03:54:22;5.70;;;3.50;;
56770;SDS011;42641;59.794;17.616;2023-04-06T03:56:49;5.03;;;3.43;;
56770;SDS011;42641;59.794;17.616;2023-04-06T03:59:15;5.03;;;3.50;;
56770;SDS011;42641;59.794;17.616;2023-04-06T04:01:42;4.63;;;3.77;;
56770;SDS011;42641;59.794;17.616;2023-04-06T04:04:08;4.07;;;3.23;;
56770;SDS011;42641;59.794;17.616;2023-04-06T04:06:34;5.10;;;3.63;;
56770;SDS011;42641;59.794;17.616;2023-04-06T04:09:02;4.47;;;3.27;;
56770;SDS011;42641;59.794;17.616;2023-04-06T04:11:29;5.10;;;3.20;;
56770;SDS011;42641;59.794;17.616;2023-04-06T04:13:57;4.17;;;3.00;;
56770;SDS011;42641;59.794;17.616;2023-04-06T04:16:24;3.60;;;2.93;;
56770;SDS011;42641;59.794;17.616;2023-04-06T04:18:50;3.63;;;2.90;;
56770;SDS011;42641;59.794;17.616;2023-04-06T04:21:17;3.90;;;3.00;;
56770;SDS011;42641;59.794;17.616;2023-04-06T04:23:43;4.97;;;3.23;;
56770;SDS011;42641;59.794;17.616;2023-04-06T04:26:10;3.77;;;2.90;;
56770;SDS011;42641;59.794;17.616;2023-04-06T04:28:37;3.17;;;2.80;;
56770;SDS011;42641;59.794;17.616;2023-04-06T04:31:03;5.07;;;3.20;;
56770;SDS011;42641;59.794;17.616;2023-04-06T04:33:33;4.00;;;3.20;;
56770;SDS011;42641;59.794;17.616;2023-04-06T04:36:02;4.60;;;3.10;;
56770;SDS011;42641;59.794;17.616;2023-04-06T04:38:35;3.37;;;2.70;;
56770;SDS011;42641;59.794;17.616;2023-04-06T04:41:02;4.07;;;2.90;;
56770;SDS011;42641;59.794;17.616;2023-04-06T04:43:29;4.07;;;3.07;;
56770;SDS011;42641;59.794;17.616;2023-04-06T04:45:56;3.60;;;3.10;;
56770;SDS011;42641;59.794;17.616;2023-04-06T04:48:34;5.27;;;3.23;;
56770;SDS011;42641;59.794;17.616;2023-04-06T04:51:03;5.63;;;3.27;;
56770;SDS011;42641;59.794;17.616;2023-04-06T04:53:42;3.13;;;2.60;;
56770;SDS011;42641;59.794;17.616;2023-04-06T04:56:18;3.70;;;3.10;;
56770;SDS011;42641;59.794;17.616;2023-04-06T04:58:47;3.83;;;3.07;;
56770;SDS011;42641;59.794;17.616;2023-04-06T05:01:14;3.20;;;2.60;;
56770;SDS011;42641;59.794;17.616;2023-04-06T05:03:42;3.77;;;2.97;;
56770;SDS011;42641;59.794;17.616;2023-04-06T05:06:13;3.20;;;2.77;;
56770;SDS011;42641;59.794;17.616;2023-04-06T05:08:40;4.00;;;2.83;;
56770;SDS011;42641;59.794;17.616;2023-04-06T05:11:08;2.87;;;2.50;;
56770;SDS011;42641;59.794;17.616;2023-04-06T05:13:39;3.10;;;2.80;;
56770;SDS011;42641;59.794;17.616;2023-04-06T05:16:12;3.33;;;2.70;;
56770;SDS011;42641;59.794;17.616;2023-04-06T05:18:38;3.77;;;3.10;;
56770;SDS011;42641;59.794;17.616;2023-04-06T05:21:06;4.70;;;3.40;;
56770;SDS011;42641;59.794;17.616;2023-04-06T05:23:54;3.03;;;2.70;;
56770;SDS011;42641;59.794;17.616;2023-04-06T05:26:21;3.27;;;2.97;;
56770;SDS011;42641;59.794;17.616;2023-04-06T05:28:50;4.67;;;3.30;;
56770;SDS011;42641;59.794;17.616;2023-04-06T05:31:18;3.40;;;3.10;;
56770;SDS011;42641;59.794;17.616;2023-04-06T05:33:47;3.30;;;2.90;;
56770;SDS011;42641;59.794;17.616;2023-04-06T05:36:16;3.90;;;3.07;;
56770;SDS011;42641;59.794;17.616;2023-04-06T05:38:45;4.30;;;2.93;;
56770;SDS011;42641;59.794;17.616;2023-04-06T05:41:32;3.60;;;2.70;;
56770;SDS011;42641;59.794;17.616;2023-04-06T05:43:58;4.13;;;2.63;;
56770;SDS011;42641;59.794;17.616;2023-04-06T05:46:25;3.40;;;2.90;;
56770;SDS011;42641;59.794;17.616;2023-04-06T05:48:54;4.60;;;3.00;;
56770;SDS011;42641;59.794;17.616;2023-04-06T05:51:24;3.37;;;3.07;;
56770;SDS011;42641;59.794;17.616;2023-04-06T05:53:52;3.40;;;3.10;;
56770;SDS011;42641;59.794;17.616;2023-04-06T05:56:19;3.43;;;3.03;;
56770;SDS011;42641;59.794;17.616;2023-04-06T05:58:46;4.00;;;3.10;;
56770;SDS011;42641;59.794;17.616;2023-04-06T06:01:16;3.97;;;3.13;;
56770;SDS011;42641;59.794;17.616;2023-04-06T06:03:46;4.13;;;3.27;;
56770;SDS011;42641;59.794;17.616;2023-04-06T06:06:12;5.50;;;3.50;;
56770;SDS011;42641;59.794;17.616;2023-04-06T06:08:58;5.10;;;3.67;;
56770;SDS011;42641;59.794;17.616;2023-04-06T06:11:27;3.50;;;2.97;;
56770;SDS011;42641;59.794;17.616;2023-04-06T06:13:53;4.80;;;3.53;;
56770;SDS011;42641;59.794;17.616;2023-04-06T06:16:20;4.77;;;3.60;;
56770;SDS011;42641;59.794;17.616;2023-04-06T06:18:48;4.23;;;3.10;;
56770;SDS011;42641;59.794;17.616;2023-04-06T06:21:14;7.67;;;4.17;;
56770;SDS011;42641;59.794;17.616;2023-04-06T06:23:42;5.13;;;3.70;;
56770;SDS011;42641;59.794;17.616;2023-04-06T06:26:13;3.87;;;3.27;;
56770;SDS011;42641;59.794;17.616;2023-04-06T06:28:39;5.03;;;3.80;;
56770;SDS011;42641;59.794;17.616;2023-04-06T06:31:06;4.67;;;3.40;;
56770;SDS011;42641;59.794;17.616;2023-04-06T06:33:32;5.67;;;3.90;;
56770;SDS011;42641;59.794;17.616;2023-04-06T06:35:59;4.37;;;3.90;;
56770;SDS011;42641;59.794;17.616;2023-04-06T06:38:26;6.27;;;3.97;;
56770;SDS011;42641;59.794;17.616;2023-04-06T06:40:53;4.97;;;3.90;;
56770;SDS011;42641;59.794;17.616;2023-04-06T06:43:23;4.57;;;3.80;;
56770;SDS011;42641;59.794;17.616;2023-04-06T06:45:58;4.00;;;3.60;;
56770;SDS011;42641;59.794;17.616;2023-04-06T06:48:24;6.00;;;4.10;;
56770;SDS011;42641;59.794;17.616;2023-04-06T06:50:51;5.20;;;4.40;;
56770;SDS011;42641;59.794;17.616;2023-04-06T06:53:17;6.53;;;4.03;;
56770;SDS011;42641;59.794;17.616;2023-04-06T06:55:45;4.80;;;4.00;;
56770;SDS011;42641;59.794;17.616;2023-04-06T06:58:12;5.97;;;4.20;;
56770;SDS011;42641;59.794;17.616;2023-04-06T07:00:38;4.77;;;4.03;;
56770;SDS011;42641;59.794;17.616;2023-04-06T07:03:05;5.40;;;4.60;;
56770;SDS011;42641;59.794;17.616;2023-04-06T07:05:33;5.20;;;4.23;;
56770;SDS011;42641;59.794;17.616;2023-04-06T07:10:56;5.53;;;4.17;;
56770;SDS011;42641;59.794;17.616;2023-04-06T07:13:22;5.17;;;3.73;;
56770;SDS011;42641;59.794;17.616;2023-04-06T07:15:52;4.40;;;3.33;;
56770;SDS011;42641;59.794;17.616;2023-04-06T07:18:19;4.00;;;3.60;;
56770;SDS011;42641;59.794;17.616;2023-04-06T07:20:46;4.00;;;3.37;;
56770;SDS011;42641;59.794;17.616;2023-04-06T07:23:14;3.93;;;3.40;;
56770;SDS011;42641;59.794;17.616;2023-04-06T07:25:40;4.27;;;3.10;;
56770;SDS011;42641;59.794;17.616;2023-04-06T07:28:09;3.67;;;3.33;;
56770;SDS011;42641;59.794;17.616;2023-04-06T07:30:36;3.73;;;3.23;;
56770;SDS011;42641;59.794;17.616;2023-04-06T07:47:44;4.87;;;2.70;;
56770;SDS011;42641;59.794;17.616;2023-04-06T08:35:56;2.27;;;2.07;;
56770;SDS011;42641;59.794;17.616;2023-04-06T08:38:23;2.20;;;2.00;;
56770;SDS011;42641;59.794;17.616;2023-04-06T08:40:50;2.30;;;2.10;;
56770;SDS011;42641;59.794;17.616;2023-04-06T08:43:17;2.33;;;2.13;;
56770;SDS011;42641;59.794;17.616;2023-04-06T08:45:47;2.37;;;2.17;;
56770;SDS011;42641;59.794;17.616;2023-04-06T08:48:14;2.00;;;1.90;;
56770;SDS011;42641;59.794;17.616;2023-04-06T08:50:42;2.33;;;2.13;;
56770;SDS011;42641;59.794;17.616;2023-04-06T08:53:09;2.30;;;2.10;;
56770;SDS011;42641;59.794;17.616;2023-04-06T08:55:37;1.90;;;1.80;;
56770;SDS011;42641;59.794;17.616;2023-04-06T08:58:06;1.67;;;1.57;;
56770;SDS011;42641;59.794;17.616;2023-04-06T09:00:35;2.57;;;1.90;;
56770;SDS011;42641;59.794;17.616;2023-04-06T09:03:04;1.50;;;1.33;;
56770;SDS011;42641;59.794;17.616;2023-04-06T09:05:32;1.60;;;1.30;;
56770;SDS011;42641;59.794;17.616;2023-04-06T09:07:58;1.37;;;1.27;;
56770;SDS011;42641;59.794;17.616;2023-04-06T09:10:25;1.70;;;1.43;;
56770;SDS011;42641;59.794;17.616;2023-04-06T09:13:01;2.80;;;1.60;;
56770;SDS011;42641;59.794;17.616;2023-04-06T09:15:29;1.90;;;1.37;;
56770;SDS011;42641;59.794;17.616;2023-04-06T09:17:55;1.20;;;1.10;;
56770;SDS011;42641;59.794;17.616;2023-04-06T09:20:26;1.30;;;1.20;;
56770;SDS011;42641;59.794;17.616;2023-04-06T09:22:54;1.50;;;1.40;;
56770;SDS011;42641;59.794;17.616;2023-04-06T09:25:22;1.47;;;1.30;;
56770;SDS011;42641;59.794;17.616;2023-04-06T09:27:58;2.30;;;1.43;;
56770;SDS011;42641;59.794;17.616;2023-04-06T09:30:26;0.87;;;0.87;;
56770;SDS011;42641;59.794;17.616;2023-04-06T09:32:56;1.43;;;1.30;;
56770;SDS011;42641;59.794;17.616;2023-04-06T09:35:23;2.33;;;1.50;;
56770;SDS011;42641;59.794;17.616;2023-04-06T09:37:52;1.37;;;1.20;;
56770;SDS011;42641;59.794;17.616;2023-04-06T09:40:19;1.93;;;1.33;;
56770;SDS011;42641;59.794;17.616;2023-04-06T09:42:48;1.17;;;1.00;;
56770;SDS011;42641;59.794;17.616;2023-04-06T09:45:20;1.00;;;1.00;;
56770;SDS011;42641;59.794;17.616;2023-04-06T09:47:46;1.40;;;1.20;;
56770;SDS011;42641;59.794;17.616;2023-04-06T09:50:14;2.17;;;1.43;;
56770;SDS011;42641;59.794;17.616;2023-04-06T09:52:49;3.23;;;1.27;;
56770;SDS011;42641;59.794;17.616;2023-04-06T09:55:23;1.30;;;1.20;;
56770;SDS011;42641;59.794;17.616;2023-04-06T09:58:04;1.40;;;1.30;;
56770;SDS011;42641;59.794;17.616;2023-04-06T10:00:32;1.43;;;1.20;;
56770;SDS011;42641;59.794;17.616;2023-04-06T10:06:11;1.50;;;1.40;;
56770;SDS011;42641;59.794;17.616;2023-04-06T10:08:39;1.30;;;1.20;;
56770;SDS011;42641;59.794;17.616;2023-04-06T10:11:08;2.30;;;1.53;;
56770;SDS011;42641;59.794;17.616;2023-04-06T10:13:36;1.63;;;1.50;;
56770;SDS011;42641;59.794;17.616;2023-04-06T10:16:03;2.27;;;1.20;;
56770;SDS011;42641;59.794;17.616;2023-04-06T10:18:31;3.03;;;1.40;;
56770;SDS011;42641;59.794;17.616;2023-04-06T10:21:04;1.30;;;1.20;;
56770;SDS011;42641;59.794;17.616;2023-04-06T10:23:39;1.97;;;1.30;;
56770;SDS011;42641;59.794;17.616;2023-04-06T10:26:14;2.17;;;1.47;;
56770;SDS011;42641;59.794;17.616;2023-04-06T10:28:43;1.63;;;1.40;;
56770;SDS011;42641;59.794;17.616;2023-04-06T10:31:11;1.30;;;1.20;;
56770;SDS011;42641;59.794;17.616;2023-04-06T10:33:38;1.30;;;1.20;;
56770;SDS011;42641;59.794;17.616;2023-04-06T10:38:37;2.10;;;1.53;;
56770;SDS011;42641;59.794;17.616;2023-04-06T10:41:06;1.67;;;1.30;;
56770;SDS011;42641;59.794;17.616;2023-04-06T10:43:34;1.40;;;1.30;;
56770;SDS011;42641;59.794;17.616;2023-04-06T10:46:05;3.70;;;1.87;;
56770;SDS011;42641;59.794;17.616;2023-04-06T10:48:40;2.33;;;1.90;;
56770;SDS011;42641;59.794;17.616;2023-04-06T10:51:08;2.07;;;1.87;;
56770;SDS011;42641;59.794;17.616;2023-04-06T10:53:43;2.10;;;1.90;;
56770;SDS011;42641;59.794;17.616;2023-04-06T10:56:14;1.83;;;1.73;;
56770;SDS011;42641;59.794;17.616;2023-04-06T10:58:48;2.07;;;1.97;;
56770;SDS011;42641;59.794;17.616;2023-04-06T11:01:17;2.07;;;1.80;;
56770;SDS011;42641;59.794;17.616;2023-04-06T11:03:51;2.10;;;1.97;;
56770;SDS011;42641;59.794;17.616;2023-04-06T11:06:23;2.00;;;1.80;;
56770;SDS011;42641;59.794;17.616;2023-04-06T11:08:53;2.53;;;2.10;;
56770;SDS011;42641;59.794;17.616;2023-04-06T11:11:20;2.00;;;1.90;;
56770;SDS011;42641;59.794;17.616;2023-04-06T11:13:49;1.90;;;1.80;;
56770;SDS011;42641;59.794;17.616;2023-04-06T11:16:24;1.97;;;1.77;;
56770;SDS011;42641;59.794;17.616;2023-04-06T11:24:13;1.80;;;1.70;;
56770;SDS011;42641;59.794;17.616;2023-04-06T11:29:10;2.07;;;1.77;;
56770;SDS011;42641;59.794;17.616;2023-04-06T11:31:45;2.17;;;2.00;;
56770;SDS011;42641;59.794;17.616;2023-04-06T11:34:15;2.07;;;1.90;;
56770;SDS011;42641;59.794;17.616;2023-04-06T11:36:44;2.07;;;1.80;;
56770;SDS011;42641;59.794;17.616;2023-04-06T11:39:13;2.67;;;1.60;;
56770;SDS011;42641;59.794;17.616;2023-04-06T11:41:47;2.00;;;1.80;;
56770;SDS011;42641;59.794;17.616;2023-04-06T11:44:14;2.53;;;1.97;;
56770;SDS011;42641;59.794;17.616;2023-04-06T11:46:50;3.67;;;1.90;;
56770;SDS011;42641;59.794;17.616;2023-04-06T11:49:18;1.80;;;1.70;;
56770;SDS011;42641;59.794;17.616;2023-04-06T11:51:45;2.23;;;1.80;;
56770;SDS011;42641;59.794;17.616;2023-04-06T11:54:12;1.87;;;1.77;;
56770;SDS011;42641;59.794;17.616;2023-04-06T11:56:38;1.90;;;1.67;;
56770;SDS011;42641;59.794;17.616;2023-04-06T11:59:05;2.67;;;2.00;;
56770;SDS011;42641;59.794;17.616;2023-04-06T12:01:31;1.80;;;1.60;;
56770;SDS011;42641;59.794;17.616;2023-04-06T12:03:58;3.43;;;1.90;;
56770;SDS011;42641;59.794;17.616;2023-04-06T12:06:24;1.80;;;1.60;;
56770;SDS011;42641;59.794;17.616;2023-04-06T12:08:51;1.87;;;1.63;;
56770;SDS011;42641;59.794;17.616;2023-04-06T12:11:18;2.53;;;2.03;;
56770;SDS011;42641;59.794;17.616;2023-04-06T12:13:46;1.97;;;1.77;;
56770;SDS011;42641;59.794;17.616;2023-04-06T12:16:12;3.23;;;1.80;;
56770;SDS011;42641;59.794;17.616;2023-04-06T12:18:38;1.80;;;1.70;;
56770;SDS011;42641;59.794;17.616;2023-04-06T12:21:05;2.37;;;1.80;;
56770;SDS011;42641;59.794;17.616;2023-04-06T12:23:31;2.00;;;1.80;;
56770;SDS011;42641;59.794;17.616;2023-04-06T12:25:58;2.37;;;1.80;;
56770;SDS011;42641;59.794;17.616;2023-04-06T12:28:24;1.73;;;1.63;;
56770;SDS011;42641;59.794;17.616;2023-04-06T12:30:52;2.70;;;1.70;;
56770;SDS011;42641;59.794;17.616;2023-04-06T12:33:20;1.87;;;1.77;;
56770;SDS011;42641;59.794;17.616;2023-04-06T12:35:47;2.10;;;1.77;;
56770;SDS011;42641;59.794;17.616;2023-04-06T12:38:13;2.10;;;1.80;;
56770;SDS011;42641;59.794;17.616;2023-04-06T12:40:40;1.60;;;1.50;;
56770;SDS011;42641;59.794;17.616;2023-04-06T12:43:07;2.00;;;1.70;;
56770;SDS011;42641;59.794;17.616;2023-04-06T12:45:34;2.10;;;1.83;;
56770;SDS011;42641;59.794;17.616;2023-04-06T12:48:01;2.00;;;1.73;;
56770;SDS011;42641;59.794;17.616;2023-04-06T12:50:28;1.80;;;1.50;;
56770;SDS011;42641;59.794;17.616;2023-04-06T12:52:54;1.80;;;1.70;;
56770;SDS011;42641;59.794;17.616;2023-04-06T12:55:21;2.03;;;1.90;;
56770;SDS011;42641;59.794;17.616;2023-04-06T12:57:47;3.00;;;1.83;;
56770;SDS011;42641;59.794;17.616;2023-04-06T13:00:14;2.23;;;1.67;;
56770;SDS011;42641;59.794;17.616;2023-04-06T13:02:41;2.07;;;1.70;;
56770;SDS011;42641;59.794;17.616;2023-04-06T13:05:13;2.73;;;1.80;;
56770;SDS011;42641;59.794;17.616;2023-04-06T13:07:44;1.90;;;1.70;;
56770;SDS011;42641;59.794;17.616;2023-04-06T13:10:11;1.70;;;1.60;;
56770;SDS011;42641;59.794;17.616;2023-04-06T13:12:38;1.87;;;1.70;;
56770;SDS011;42641;59.794;17.616;2023-04-06T13:15:05;2.50;;;1.63;;
56770;SDS011;42641;59.794;17.616;2023-04-06T13:17:32;1.80;;;1.60;;
56770;SDS011;42641;59.794;17.616;2023-04-06T13:19:58;1.80;;;1.70;;
56770;SDS011;42641;59.794;17.616;2023-04-06T13:22:25;1.77;;;1.60;;
56770;SDS011;42641;59.794;17.616;2023-04-06T13:24:52;1.60;;;1.50;;
56770;SDS011;42641;59.794;17.616;2023-04-06T13:27:18;2.10;;;1.80;;
56770;SDS011;42641;59.794;17.616;2023-04-06T13:29:45;1.80;;;1.70;;
56770;SDS011;42641;59.794;17.616;2023-04-06T13:32:11;2.67;;;1.77;;
56770;SDS011;42641;59.794;17.616;2023-04-06T13:34:38;1.83;;;1.60;;
56770;SDS011;42641;59.794;17.616;2023-04-06T13:37:06;1.73;;;1.63;;
56770;SDS011;42641;59.794;17.616;2023-04-06T13:39:32;2.87;;;1.77;;
56770;SDS011;42641;59.794;17.616;2023-04-06T13:41:59;1.80;;;1.70;;
56770;SDS011;42641;59.794;17.616;2023-04-06T13:44:25;2.30;;;1.70;;
56770;SDS011;42641;59.794;17.616;2023-04-06T13:46:53;1.80;;;1.70;;
56770;SDS011;42641;59.794;17.616;2023-04-06T13:49:20;1.87;;;1.53;;
56770;SDS011;42641;59.794;17.616;2023-04-06T13:51:46;1.70;;;1.60;;
56770;SDS011;42641;59.794;17.616;2023-04-06T13:54:13;2.13;;;1.83;;
56770;SDS011;42641;59.794;17.616;2023-04-06T13:56:39;1.63;;;1.53;;
56770;SDS011;42641;59.794;17.616;2023-04-06T13:59:05;1.83;;;1.57;;
56770;SDS011;42641;59.794;17.616;2023-04-06T14:01:32;1.67;;;1.57;;
56770;SDS011;42641;59.794;17.616;2023-04-06T14:03:58;2.40;;;1.90;;
56770;SDS011;42641;59.794;17.616;2023-04-06T14:06:25;1.77;;;1.63;;
56770;SDS011;42641;59.794;17.616;2023-04-06T14:11:47;4.40;;;1.80;;
56770;SDS011;42641;59.794;17.616;2023-04-06T14:29:02;2.00;;;1.83;;
56770;SDS011;42641;59.794;17.616;2023-04-06T14:31:30;3.17;;;2.17;;
56770;SDS011;42641;59.794;17.616;2023-04-06T14:33:57;2.20;;;2.00;;
56770;SDS011;42641;59.794;17.616;2023-04-06T14:36:23;3.20;;;1.80;;
56770;SDS011;42641;59.794;17.616;2023-04-06T14:38:52;2.03;;;1.90;;
56770;SDS011;42641;59.794;17.616;2023-04-06T14:41:19;2.20;;;1.90;;
56770;SDS011;42641;59.794;17.616;2023-04-06T14:43:47;1.77;;;1.60;;
56770;SDS011;42641;59.794;17.616;2023-04-06T14:46:13;3.03;;;2.10;;
56770;SDS011;42641;59.794;17.616;2023-04-06T14:48:41;3.13;;;2.03;;
56770;SDS011;42641;59.794;17.616;2023-04-06T14:51:07;2.00;;;1.83;;
56770;SDS011;42641;59.794;17.616;2023-04-06T14:53:34;2.30;;;1.90;;
56770;SDS011;42641;59.794;17.616;2023-04-06T14:56:00;1.80;;;1.70;;
56770;SDS011;42641;59.794;17.616;2023-04-06T14:58:26;2.20;;;2.00;;
56770;SDS011;42641;59.794;17.616;2023-04-06T15:00:57;2.53;;;2.17;;
56770;SDS011;42641;59.794;17.616;2023-04-06T15:12:35;2.70;;;1.97;;
56770;SDS011;42641;59.794;17.616;2023-04-06T15:15:01;2.00;;;1.80;;
56770;SDS011;42641;59.794;17.616;2023-04-06T15:17:28;2.23;;;1.90;;
56770;SDS011;42641;59.794;17.616;2023-04-06T15:19:55;2.63;;;2.00;;
56770;SDS011;42641;59.794;17.616;2023-04-06T15:22:21;2.37;;;2.10;;
56770;SDS011;42641;59.794;17.616;2023-04-06T15:24:47;2.10;;;2.00;;
56770;SDS011;42641;59.794;17.616;2023-04-06T15:27:14;3.20;;;1.80;;
56770;SDS011;42641;59.794;17.616;2023-04-06T15:29:40;1.97;;;1.77;;
56770;SDS011;42641;59.794;17.616;2023-04-06T15:32:07;2.20;;;2.00;;
56770;SDS011;42641;59.794;17.616;2023-04-06T15:34:33;2.20;;;2.00;;
56770;SDS011;42641;59.794;17.616;2023-04-06T15:37:00;2.27;;;2.07;;
56770;SDS011;42641;59.794;17.616;2023-04-06T15:39:27;2.20;;;1.90;;
56770;SDS011;42641;59.794;17.616;2023-04-06T15:41:54;2.30;;;1.90;;
56770;SDS011;42641;59.794;17.616;2023-04-06T15:44:22;2.03;;;1.87;;
56770;SDS011;42641;59.794;17.616;2023-04-06T15:46:48;3.07;;;2.50;;
56770;SDS011;42641;59.794;17.616;2023-04-06T15:49:16;2.37;;;2.17;;
56770;SDS011;42641;59.794;17.616;2023-04-06T15:51:42;2.20;;;2.00;;
56770;SDS011;42641;59.794;17.616;2023-04-06T15:56:58;3.57;;;1.83;;
56770;SDS011;42641;59.794;17.616;2023-04-06T15:59:25;2.10;;;1.80;;
56770;SDS011;42641;59.794;17.616;2023-04-06T16:01:51;2.97;;;1.90;;
56770;SDS011;42641;59.794;17.616;2023-04-06T16:04:19;3.63;;;2.03;;
56770;SDS011;42641;59.794;17.616;2023-04-06T16:06:45;1.93;;;1.73;;
56770;SDS011;42641;59.794;17.616;2023-04-06T16:09:11;2.57;;;2.00;;
56770;SDS011;42641;59.794;17.616;2023-04-06T16:11:38;2.67;;;2.00;;
56770;SDS011;42641;59.794;17.616;2023-04-06T16:14:05;2.07;;;1.80;;
56770;SDS011;42641;59.794;17.616;2023-04-06T16:16:31;1.80;;;1.70;;
56770;SDS011;42641;59.794;17.616;2023-04-06T16:18:57;1.80;;;1.60;;
56770;SDS011;42641;59.794;17.616;2023-04-06T16:21:24;2.00;;;1.83;;
56770;SDS011;42641;59.794;17.616;2023-04-06T16:23:52;1.80;;;1.70;;
56770;SDS011;42641;59.794;17.616;2023-04-06T16:26:20;2.20;;;2.00;;
56770;SDS011;42641;59.794;17.616;2023-04-06T16:28:46;3.67;;;1.80;;